createdAt,value
2019-04-03T00:01:43.126Z,32.02
2019-04-03T00:03:50.523Z,31.70
2019-04-03T00:05:57.889Z,32.00
2019-04-03T00:08:06.397Z,31.33
2019-04-03T00:10:15.139Z,31.88
2019-04-03T00:12:23.111Z,31.28
2019-04-03T00:14:30.482Z,31.34
2019-04-03T00:16:37.923Z,32.20
2019-04-03T00:18:46.795Z,31.40
2019-04-03T00:20:54.331Z,31.59
2019-04-03T00:23:01.765Z,31.55
2019-04-03T00:25:09.771Z,31.15
2019-04-03T00:27:17.137Z,31.82
2019-04-03T00:29:24.583Z,31.42
2019-04-03T00:31:31.984Z,31.98
2019-04-03T00:33:39.373Z,30.91
2019-04-03T00:35:46.801Z,31.55
2019-04-03T00:37:54.187Z,31.18
2019-04-03T00:40:01.526Z,31.45
2019-04-03T00:42:08.904Z,31.41
2019-04-03T00:44:17.164Z,31.69
2019-04-03T00:46:25.174Z,31.29
2019-04-03T00:48:32.687Z,31.09
2019-04-03T00:50:41.018Z,32.19
2019-04-03T00:52:48.399Z,31.42
2019-04-03T00:54:56.629Z,31.27
2019-04-03T00:57:04.600Z,31.27
2019-04-03T00:59:11.961Z,31.70
2019-04-03T01:01:19.405Z,31.05
2019-04-03T01:03:28.246Z,31.25
2019-04-03T01:05:35.991Z,31.95
2019-04-03T01:07:44.537Z,31.63
2019-04-03T01:09:52.060Z,31.78
2019-04-03T01:12:00.865Z,31.64
2019-04-03T01:14:08.650Z,31.87
2019-04-03T01:16:16.046Z,31.65
2019-04-03T01:18:23.436Z,32.20
2019-04-03T01:20:30.839Z,31.67
2019-04-03T01:22:38.374Z,31.81
2019-04-03T01:24:45.772Z,32.04
2019-04-03T01:26:53.343Z,32.97
2019-04-03T01:29:00.837Z,32.47
2019-04-03T01:31:08.246Z,32.33
2019-04-03T01:33:16.483Z,32.33
2019-04-03T01:35:24.531Z,31.99
2019-04-03T01:37:31.890Z,32.39
2019-04-03T01:39:39.229Z,32.24
2019-04-03T01:41:46.607Z,32.60
2019-04-03T01:43:54.388Z,32.78
2019-04-03T01:46:02.248Z,32.61
2019-04-03T01:48:09.634Z,32.92
2019-04-03T01:50:17.045Z,33.05
2019-04-03T01:52:24.402Z,32.87
2019-04-03T01:54:33.264Z,32.88
2019-04-03T01:56:40.934Z,33.32
2019-04-03T01:58:48.385Z,32.87
2019-04-03T02:00:55.781Z,33.46
2019-04-03T02:03:03.165Z,32.94
2019-04-03T02:05:12.795Z,33.02
2019-04-03T02:07:20.761Z,32.97
2019-04-03T02:09:28.142Z,33.80
2019-04-03T02:11:35.624Z,33.43
2019-04-03T02:13:42.969Z,33.47
2019-04-03T02:15:52.126Z,33.61
2019-04-03T02:17:59.427Z,33.66
2019-04-03T02:20:07.251Z,33.90
2019-04-03T02:22:14.639Z,33.68
2019-04-03T02:24:21.959Z,34.12
2019-04-03T02:26:30.663Z,34.39
2019-04-03T02:28:38.338Z,34.04
2019-04-03T02:30:47.182Z,33.75
2019-04-03T02:32:56.642Z,34.00
2019-04-03T02:35:06.544Z,34.47
2019-04-03T02:37:16.512Z,34.64
2019-04-03T02:39:25.723Z,34.33
2019-04-03T02:41:31.243Z,34.82
2019-04-03T02:43:38.871Z,34.44
2019-04-03T02:45:46.442Z,34.50
2019-04-03T02:47:53.818Z,34.83
2019-04-03T02:50:01.626Z,34.59
2019-04-03T02:52:09.624Z,35.29
2019-04-03T02:54:34.671Z,35.03
2019-04-03T02:56:40.691Z,35.03
2019-04-03T02:58:48.197Z,35.16
2019-04-03T03:00:55.652Z,34.94
2019-04-03T03:03:03.084Z,34.71
2019-04-03T03:05:10.725Z,35.32
2019-04-03T03:07:18.599Z,35.07
2019-04-03T03:09:26.508Z,35.20
2019-04-03T03:11:34.249Z,35.05
2019-04-03T03:13:41.678Z,35.19
2019-04-03T03:15:49.774Z,35.39
2019-04-03T03:17:58.170Z,35.54
2019-04-03T03:20:08.355Z,35.46
2019-04-03T03:22:18.011Z,35.77
2019-04-03T03:24:29.420Z,35.54
2019-04-03T03:26:37.803Z,35.87
2019-04-03T03:28:47.392Z,34.77
2019-04-03T03:31:01.469Z,34.87
2019-04-03T03:33:24.247Z,35.44
2019-04-03T03:35:19.841Z,35.22
2019-04-03T03:37:23.702Z,35.53
2019-04-03T03:39:32.903Z,35.16
2019-04-03T03:41:40.669Z,35.69
2019-04-03T03:43:48.521Z,35.62
2019-04-03T03:45:56.874Z,36.19
2019-04-03T03:48:08.519Z,36.07
2019-04-03T03:50:14.501Z,35.69
2019-04-03T03:52:22.449Z,36.31
2019-04-03T03:54:31.785Z,35.87
2019-04-03T03:56:39.882Z,36.46
2019-04-03T03:58:48.209Z,36.36
2019-04-03T04:00:59.510Z,36.29
2019-04-03T04:03:08.947Z,36.64
2019-04-03T04:05:15.410Z,35.94
2019-04-03T04:07:24.554Z,36.72
2019-04-03T04:09:32.583Z,36.36
2019-04-03T04:11:40.231Z,36.02
2019-04-03T04:13:49.679Z,36.50
2019-04-03T04:15:57.665Z,36.77
2019-04-03T04:18:06.133Z,36.81
2019-04-03T04:20:13.750Z,37.16
2019-04-03T04:22:23.024Z,36.54
2019-04-03T04:24:30.815Z,36.63
2019-04-03T04:26:38.644Z,37.02
2019-04-03T04:28:46.346Z,37.15
2019-04-03T04:30:54.264Z,37.15
2019-04-03T04:33:01.925Z,37.30
2019-04-03T04:35:11.044Z,36.98
2019-04-03T04:37:18.727Z,38.01
2019-04-03T04:39:26.593Z,37.26
2019-04-03T04:41:35.502Z,36.90
2019-04-03T04:43:43.263Z,38.18
2019-04-03T04:45:50.985Z,37.24
2019-04-03T04:48:00.309Z,37.29
2019-04-03T04:50:08.309Z,37.11
2019-04-03T04:52:15.836Z,37.21
2019-04-03T04:54:23.578Z,37.21
2019-04-03T04:56:31.090Z,37.27
2019-04-03T04:58:38.677Z,37.36
2019-04-03T05:00:47.462Z,37.70
2019-04-03T05:02:55.576Z,37.52
2019-04-03T05:05:03.182Z,37.49
2019-04-03T05:07:10.569Z,36.68
2019-04-03T05:09:17.937Z,36.92
2019-04-03T05:11:25.369Z,37.04
2019-04-03T05:13:32.798Z,37.50
2019-04-03T05:15:40.248Z,37.35
2019-04-03T05:17:50.425Z,36.17
2019-04-03T05:19:57.149Z,36.97
2019-04-03T05:22:04.930Z,37.39
2019-04-03T05:24:13.723Z,37.04
2019-04-03T05:26:21.895Z,36.99
2019-04-03T05:28:29.442Z,36.60
2019-04-03T05:30:38.675Z,36.73
2019-04-03T05:32:46.148Z,36.10
2019-04-03T05:34:53.697Z,36.26
2019-04-03T05:37:01.227Z,36.31
2019-04-03T05:39:10.394Z,36.03
2019-04-03T05:41:17.820Z,36.14
2019-04-03T05:43:25.389Z,35.98
2019-04-03T05:45:34.584Z,36.41
2019-04-03T05:47:41.861Z,35.81
2019-04-03T05:49:51.249Z,35.40
2019-04-03T05:51:58.738Z,35.95
2019-04-03T05:54:08.014Z,35.56
2019-04-03T05:56:15.222Z,35.50
2019-04-03T05:58:23.537Z,35.08
2019-04-03T06:00:30.940Z,35.43
2019-04-03T06:02:38.489Z,35.36
2019-04-03T06:04:46.050Z,35.25
2019-04-03T06:06:53.625Z,35.22
2019-04-03T06:09:01.544Z,35.34
2019-04-03T06:11:09.789Z,34.77
2019-04-03T06:13:17.625Z,35.71
2019-04-03T06:15:25.261Z,34.81
2019-04-03T06:17:32.686Z,35.09
2019-04-03T06:19:40.325Z,34.60
2019-04-03T06:21:48.044Z,34.81
2019-04-03T06:23:55.613Z,34.81
2019-04-03T06:26:03.739Z,34.92
2019-04-03T06:28:13.391Z,34.60
2019-04-03T06:30:20.900Z,34.52
2019-04-03T06:32:29.171Z,34.66
2019-04-03T06:34:38.646Z,34.85
2019-04-03T06:36:46.689Z,34.92
2019-04-03T06:38:57.039Z,35.05
2019-04-03T06:41:07.794Z,34.78
2019-04-03T06:43:15.351Z,34.04
2019-04-03T06:45:24.059Z,33.97
2019-04-03T06:47:32.925Z,34.19
2019-04-03T06:49:41.125Z,34.02
2019-04-03T06:51:49.352Z,33.29
2019-04-03T06:53:59.545Z,33.92
2019-04-03T06:56:08.638Z,33.17
2019-04-03T06:58:15.950Z,33.74
2019-04-03T07:00:23.524Z,33.49
2019-04-03T07:02:32.313Z,33.74
2019-04-03T07:04:40.137Z,32.85
2019-04-03T07:06:47.861Z,32.29
2019-04-03T07:08:55.294Z,32.52
2019-04-03T07:11:02.896Z,33.32
2019-04-03T07:13:10.620Z,32.86
2019-04-03T07:15:18.071Z,32.97
2019-04-03T07:17:26.376Z,32.14
2019-04-03T07:19:34.281Z,32.57
2019-04-03T07:21:41.831Z,32.31
2019-04-03T07:23:50.178Z,32.71
2019-04-03T07:25:57.554Z,32.63
2019-04-03T07:28:05.130Z,32.95
2019-04-03T07:30:16.648Z,33.21
2019-04-03T07:32:24.896Z,31.71
2019-04-03T07:34:34.254Z,31.81
2019-04-03T07:36:44.496Z,31.89
2019-04-03T07:38:50.464Z,32.37
2019-04-03T07:40:57.888Z,31.53
2019-04-03T07:43:07.731Z,31.96
2019-04-03T07:45:16.563Z,31.25
2019-04-03T07:47:24.379Z,32.27
2019-04-03T07:49:32.003Z,31.72
2019-04-03T07:51:39.411Z,32.34
2019-04-03T07:53:46.959Z,31.61
2019-04-03T07:55:55.367Z,31.45
2019-04-03T07:58:03.507Z,31.57
2019-04-03T08:00:12.648Z,31.78
2019-04-03T08:02:20.162Z,31.63
2019-04-03T08:04:27.714Z,31.01
2019-04-03T08:06:36.355Z,31.67
2019-04-03T08:08:43.949Z,30.99
2019-04-03T08:10:51.559Z,31.22
2019-04-03T08:12:59.888Z,30.27
2019-04-03T08:15:12.744Z,30.64
2019-04-03T08:17:19.547Z,31.06
2019-04-03T08:19:27.079Z,30.07
2019-04-03T08:21:34.471Z,30.63
2019-04-03T08:23:42.019Z,30.10
2019-04-03T08:25:49.408Z,30.78
2019-04-03T08:27:57.080Z,30.90
2019-04-03T08:30:07.561Z,30.02
2019-04-03T08:32:16.166Z,29.92
2019-04-03T08:34:23.334Z,30.00
2019-04-03T08:36:30.777Z,29.69
2019-04-03T08:38:39.651Z,28.76
2019-04-03T08:40:47.488Z,30.53
2019-04-03T08:42:55.476Z,29.06
2019-04-03T08:45:05.738Z,28.95
2019-04-03T08:47:14.301Z,29.67
2019-04-03T08:49:21.884Z,29.42
2019-04-03T08:51:29.537Z,29.29
2019-04-03T08:53:39.610Z,29.50
2019-04-03T08:55:46.914Z,28.26
2019-04-03T08:57:54.525Z,29.32
2019-04-03T09:00:02.067Z,28.67
2019-04-03T09:02:12.646Z,28.11
2019-04-03T09:04:18.941Z,29.15
2019-04-03T09:06:26.529Z,29.58
2019-04-03T09:08:34.247Z,29.19
2019-04-03T09:10:41.717Z,28.37
2019-04-03T09:12:49.445Z,28.29
2019-04-03T09:14:57.831Z,28.04
2019-04-03T09:17:05.495Z,28.20
2019-04-03T09:19:12.884Z,27.76
2019-04-03T09:21:20.632Z,27.88
2019-04-03T09:23:28.340Z,28.42
2019-04-03T09:25:35.883Z,28.12
2019-04-03T09:27:43.319Z,28.35
2019-04-03T09:29:50.755Z,27.63
2019-04-03T09:31:58.156Z,27.25
2019-04-03T09:34:05.659Z,26.44
2019-04-03T09:36:18.348Z,27.57
2019-04-03T09:38:25.790Z,27.13
2019-04-03T09:40:33.252Z,26.86
2019-04-03T09:42:40.829Z,25.86
2019-04-03T09:44:48.417Z,26.85
2019-04-03T09:46:55.814Z,26.71
2019-04-03T09:49:03.484Z,26.72
2019-04-03T09:51:11.289Z,26.49
2019-04-03T09:53:19.636Z,26.70
2019-04-03T09:55:27.144Z,25.97
2019-04-03T09:57:34.625Z,25.58
2019-04-03T09:59:42.074Z,25.15
2019-04-03T10:01:49.570Z,25.78
2019-04-03T10:03:56.989Z,24.84
2019-04-03T10:06:04.874Z,26.04
2019-04-03T10:08:12.593Z,25.80
2019-04-03T10:10:21.706Z,25.83
2019-04-03T10:12:31.775Z,25.46
2019-04-03T10:14:38.327Z,25.30
2019-04-03T10:16:45.784Z,25.66
2019-04-03T10:18:53.204Z,24.69
2019-04-03T10:21:00.625Z,25.31
2019-04-03T10:23:08.004Z,23.89
2019-04-03T10:25:15.692Z,25.07
2019-04-03T10:27:23.452Z,24.78
2019-04-03T10:29:30.973Z,24.94
2019-04-03T10:31:38.469Z,24.88
2019-04-03T10:33:45.973Z,25.29
2019-04-03T10:35:53.579Z,24.60
2019-04-03T10:38:01.019Z,24.31
2019-04-03T10:40:09.410Z,24.14
2019-04-03T10:42:16.864Z,23.79
2019-04-03T10:44:24.373Z,23.64
2019-04-03T10:46:32.040Z,23.29
2019-04-03T10:48:39.620Z,24.37
2019-04-03T10:50:47.069Z,23.88
2019-04-03T10:52:54.484Z,23.29
2019-04-03T10:55:01.871Z,23.80
2019-04-03T10:57:09.685Z,22.97
2019-04-03T10:59:18.486Z,22.87
2019-04-03T11:01:26.638Z,22.87
2019-04-03T11:03:34.163Z,24.49
2019-04-03T11:05:41.819Z,23.38
2019-04-03T11:07:49.238Z,24.31
2019-04-03T11:09:56.641Z,23.72
2019-04-03T11:12:04.307Z,22.65
2019-04-03T11:14:11.897Z,23.01
2019-04-03T11:16:19.300Z,22.73
2019-04-03T11:18:27.051Z,23.31
2019-04-03T11:20:35.782Z,23.37
2019-04-03T11:22:43.931Z,22.63
2019-04-03T11:24:51.848Z,23.79
2019-04-03T11:26:59.594Z,23.36
2019-04-03T11:29:09.908Z,22.95
2019-04-03T11:31:26.217Z,21.95
2019-04-03T11:33:25.599Z,22.97
2019-04-03T11:35:33.183Z,22.27
2019-04-03T11:37:40.594Z,22.41
2019-04-03T11:39:52.021Z,22.50
2019-04-03T11:41:57.276Z,22.87
2019-04-03T11:44:05.103Z,23.16
2019-04-03T11:46:12.737Z,22.19
2019-04-03T11:48:20.294Z,22.98
2019-04-03T11:50:27.937Z,22.04
2019-04-03T11:52:35.589Z,22.32
2019-04-03T11:54:45.532Z,22.10
2019-04-03T11:56:55.872Z,23.16
2019-04-03T11:59:02.183Z,22.60
2019-04-03T12:01:10.968Z,23.91
2019-04-03T12:03:18.680Z,23.33
2019-04-03T12:05:26.446Z,22.69
2019-04-03T12:07:34.034Z,22.92
2019-04-03T12:09:41.634Z,22.84
2019-04-03T12:11:50.199Z,22.33
2019-04-03T12:13:57.664Z,22.90
2019-04-03T12:16:05.167Z,22.94
2019-04-03T12:18:12.913Z,23.47
2019-04-03T12:20:20.610Z,23.02
2019-04-03T12:22:28.505Z,22.82
2019-04-03T12:24:36.268Z,23.24
2019-04-03T12:26:44.256Z,23.09
2019-04-03T12:28:52.636Z,22.34
2019-04-03T12:31:00.335Z,22.78
2019-04-03T12:33:07.975Z,23.15
2019-04-03T12:35:15.871Z,22.95
2019-04-03T12:37:25.045Z,23.33
2019-04-03T12:39:33.037Z,21.90
2019-04-03T12:41:42.827Z,22.35
2019-04-03T12:43:50.739Z,22.73
2019-04-03T12:46:02.273Z,21.66
2019-04-03T12:48:07.997Z,22.38
2019-04-03T12:50:17.242Z,22.65
2019-04-03T12:52:24.779Z,22.19
2019-04-03T12:54:32.331Z,22.24
2019-04-03T12:56:40.351Z,23.28
2019-04-03T12:58:47.914Z,22.15
2019-04-03T13:00:55.309Z,23.14
2019-04-03T13:03:02.873Z,22.25
2019-04-03T13:05:11.559Z,23.03
2019-04-03T13:07:19.410Z,22.15
2019-04-03T13:09:26.886Z,21.88
2019-04-03T13:11:34.315Z,22.64
2019-04-03T13:13:42.375Z,22.80
2019-04-03T13:15:49.879Z,22.49
2019-04-03T13:17:57.620Z,23.02
2019-04-03T13:20:06.544Z,22.05
2019-04-03T13:22:14.821Z,22.74
2019-04-03T13:24:23.612Z,23.31
2019-04-03T13:26:31.044Z,22.77
2019-04-03T13:28:40.416Z,22.86
2019-04-03T13:30:48.463Z,22.14
2019-04-03T13:32:59.703Z,22.49
2019-04-03T13:35:06.359Z,22.43
2019-04-03T13:37:14.353Z,22.66
2019-04-03T13:39:21.994Z,22.63
2019-04-03T13:41:29.550Z,22.78
2019-04-03T13:43:37.150Z,23.08
2019-04-03T13:45:44.803Z,23.31
2019-04-03T13:47:52.283Z,22.11
2019-04-03T13:50:02.218Z,22.93
2019-04-03T13:52:09.975Z,22.85
2019-04-03T13:54:18.351Z,23.19
2019-04-03T13:56:43.978Z,22.80
2019-04-03T13:58:53.942Z,23.17
2019-04-03T14:01:02.763Z,22.84
2019-04-03T14:03:10.111Z,23.49
2019-04-03T14:05:17.766Z,22.57
2019-04-03T14:07:25.520Z,22.48
2019-04-03T14:09:33.008Z,23.03
2019-04-03T14:11:40.438Z,22.99
2019-04-03T14:13:48.751Z,22.80
2019-04-03T14:15:56.816Z,22.47
2019-04-03T14:18:04.348Z,23.29
2019-04-03T14:20:14.525Z,23.16
2019-04-03T14:22:22.066Z,22.75
2019-04-03T14:24:39.256Z,22.86
2019-04-03T14:26:38.844Z,23.58
2019-04-03T14:28:46.421Z,22.97
2019-04-03T14:30:54.088Z,23.74
2019-04-03T14:33:01.937Z,23.25
2019-04-03T14:35:41.241Z,22.56
2019-04-03T14:37:24.448Z,23.21
2019-04-03T14:39:28.720Z,22.87
2019-04-03T14:41:36.434Z,23.58
2019-04-03T14:43:43.984Z,23.44
2019-04-03T14:45:51.715Z,23.64
2019-04-03T14:47:59.605Z,23.06
2019-04-03T14:50:09.084Z,23.19
2019-04-03T14:52:17.613Z,22.40
2019-04-03T14:54:25.788Z,22.50
2019-04-03T14:56:34.158Z,22.89
2019-04-03T14:58:42.541Z,23.15
2019-04-03T15:00:50.697Z,23.19
2019-04-03T15:02:58.766Z,22.91
2019-04-03T15:05:08.529Z,23.21
2019-04-03T15:07:17.880Z,23.56
2019-04-03T15:09:26.992Z,23.20
2019-04-03T15:11:35.681Z,23.94
2019-04-03T15:13:43.478Z,23.64
2019-04-03T15:15:51.198Z,23.17
2019-04-03T15:17:59.095Z,23.71
2019-04-03T15:20:08.285Z,23.25
2019-04-03T15:22:15.893Z,23.29
2019-04-03T15:24:23.489Z,23.62
2019-04-03T15:26:31.467Z,23.22
2019-04-03T15:28:39.372Z,23.58
2019-04-03T15:30:47.421Z,23.58
2019-04-03T15:32:55.801Z,24.13
2019-04-03T15:35:03.478Z,23.46
2019-04-03T15:37:13.909Z,23.19
2019-04-03T15:39:21.581Z,23.55
2019-04-03T15:41:33.067Z,23.79
2019-04-03T15:43:38.546Z,24.13
2019-04-03T15:45:46.512Z,23.72
2019-04-03T15:47:57.110Z,23.82
2019-04-03T15:50:03.564Z,23.89
2019-04-03T15:52:12.038Z,24.13
2019-04-03T15:54:20.401Z,23.94
2019-04-03T15:56:27.971Z,23.81
2019-04-03T15:58:35.454Z,24.43
2019-04-03T16:00:43.451Z,24.02
2019-04-03T16:02:51.285Z,24.31
2019-04-03T16:04:59.939Z,24.05
2019-04-03T16:07:08.789Z,24.23
2019-04-03T16:09:18.338Z,24.65
2019-04-03T16:11:27.011Z,24.98
2019-04-03T16:13:35.118Z,24.46
2019-04-03T16:15:42.604Z,24.31
2019-04-03T16:17:50.086Z,24.51
2019-04-03T16:19:57.901Z,24.95
2019-04-03T16:22:05.947Z,24.06
2019-04-03T16:24:14.044Z,24.65
2019-04-03T16:26:24.310Z,24.74
2019-04-03T16:28:33.721Z,24.06
2019-04-03T16:30:40.458Z,24.50
2019-04-03T16:32:48.361Z,24.58
2019-04-03T16:34:55.873Z,24.71
2019-04-03T16:37:03.497Z,25.56
2019-04-03T16:39:11.414Z,25.39
2019-04-03T16:41:18.968Z,25.34
2019-04-03T16:43:26.610Z,25.42
2019-04-03T16:45:36.731Z,25.99
2019-04-03T16:47:45.000Z,24.76
2019-04-03T16:49:54.877Z,25.62
2019-04-03T16:52:04.200Z,25.84
2019-04-03T16:54:12.662Z,25.25
2019-04-03T16:56:20.448Z,25.50
2019-04-03T16:58:27.974Z,25.27
2019-04-03T17:00:35.852Z,25.09
2019-04-03T17:02:43.758Z,24.98
2019-04-03T17:04:51.503Z,25.05
2019-04-03T17:06:59.365Z,25.84
2019-04-03T17:09:09.336Z,25.82
2019-04-03T17:11:16.905Z,26.36
2019-04-03T17:13:24.448Z,26.52
2019-04-03T17:15:34.172Z,25.96
2019-04-03T17:17:44.722Z,26.25
2019-04-03T17:19:51.776Z,25.92
2019-04-03T17:21:59.702Z,26.18
2019-04-03T17:24:07.376Z,25.77
2019-04-03T17:26:15.044Z,26.50
2019-04-03T17:28:23.171Z,26.67
2019-04-03T17:30:31.857Z,26.53
2019-04-03T17:32:39.997Z,26.21
2019-04-03T17:34:47.650Z,26.45
2019-04-03T17:36:55.479Z,26.35
2019-04-03T17:39:06.077Z,26.11
2019-04-03T17:41:14.728Z,26.75
2019-04-03T17:43:22.527Z,27.16
2019-04-03T17:45:30.369Z,27.20
2019-04-03T17:47:38.305Z,27.23
2019-04-03T17:49:46.338Z,27.06
2019-04-03T17:51:53.848Z,27.20
2019-04-03T17:54:01.637Z,27.17
2019-04-03T17:56:12.335Z,26.98
2019-04-03T17:58:18.819Z,27.33
2019-04-03T18:00:27.139Z,27.60
2019-04-03T18:02:34.975Z,27.59
2019-04-03T18:04:42.972Z,27.07
2019-04-03T18:06:50.955Z,27.15
2019-04-03T18:08:58.549Z,26.70
2019-04-03T18:11:06.086Z,26.89
2019-04-03T18:13:13.779Z,27.02
2019-04-03T18:15:21.498Z,27.16
2019-04-03T18:17:29.932Z,27.88
2019-04-03T18:19:41.507Z,27.27
2019-04-03T18:21:48.829Z,27.33
2019-04-03T18:23:57.168Z,27.45
2019-04-03T18:26:05.607Z,27.37
2019-04-03T18:28:13.540Z,27.16
2019-04-03T18:30:22.041Z,27.19
2019-04-03T18:32:29.978Z,27.74
2019-04-03T18:34:37.728Z,27.48
2019-04-03T18:36:45.826Z,27.62
2019-04-03T18:38:54.051Z,28.17
2019-04-03T18:41:03.986Z,27.68
2019-04-03T18:43:10.987Z,27.39
2019-04-03T18:45:25.084Z,27.73
2019-04-03T18:47:40.400Z,27.62
2019-04-03T18:49:38.232Z,27.25
2019-04-03T18:51:45.865Z,28.12
2019-04-03T18:53:53.589Z,27.58
2019-04-03T18:56:01.221Z,27.49
2019-04-03T18:58:09.006Z,26.66
2019-04-03T19:00:17.549Z,27.10
2019-04-03T19:02:25.283Z,27.72
2019-04-03T19:04:32.863Z,27.91
2019-04-03T19:06:40.467Z,27.37
2019-04-03T19:08:50.143Z,27.61
2019-04-03T19:11:02.193Z,27.55
2019-04-03T19:13:06.934Z,27.79
2019-04-03T19:15:16.059Z,27.64
2019-04-03T19:17:24.855Z,27.79
2019-04-03T19:19:33.210Z,28.07
2019-04-03T19:21:40.826Z,27.38
2019-04-03T19:23:50.002Z,27.89
2019-04-03T19:25:58.120Z,27.75
2019-04-03T19:28:07.334Z,27.55
2019-04-03T19:30:15.539Z,27.88
2019-04-03T19:32:23.168Z,28.00
2019-04-03T19:34:30.896Z,27.60
2019-04-03T19:36:38.352Z,27.65
2019-04-03T19:38:46.218Z,27.39
2019-04-03T19:40:53.808Z,27.54
2019-04-03T19:43:01.740Z,27.99
2019-04-03T19:45:12.966Z,27.87
2019-04-03T19:47:20.515Z,28.41
2019-04-03T19:49:28.232Z,27.91
2019-04-03T19:51:37.518Z,28.19
2019-04-03T19:53:58.408Z,28.24
2019-04-03T19:55:55.363Z,27.93
2019-04-03T19:58:03.965Z,28.78
2019-04-03T20:00:12.640Z,28.06
2019-04-03T20:02:20.355Z,28.44
2019-04-03T20:04:28.309Z,28.72
2019-04-03T20:06:36.627Z,28.46
2019-04-03T20:08:44.375Z,28.63
2019-04-03T20:10:51.927Z,27.99
2019-04-03T20:12:59.538Z,28.77
2019-04-03T20:15:07.732Z,28.26
2019-04-03T20:17:15.374Z,28.38
2019-04-03T20:19:22.974Z,28.78
2019-04-03T20:21:34.022Z,28.51
2019-04-03T20:23:42.576Z,28.54
2019-04-03T20:25:50.294Z,28.30
2019-04-03T20:27:58.273Z,28.78
2019-04-03T20:30:06.664Z,28.45
2019-04-03T20:32:14.348Z,28.43
2019-04-03T20:34:22.187Z,28.38
2019-04-03T20:36:29.822Z,28.33
2019-04-03T20:38:37.336Z,28.62
2019-04-03T20:40:45.471Z,28.41
2019-04-03T20:42:53.046Z,28.64
2019-04-03T20:45:00.731Z,28.70
2019-04-03T20:47:08.499Z,28.39
2019-04-03T20:49:16.242Z,28.64
2019-04-03T20:51:23.845Z,28.81
2019-04-03T20:53:31.344Z,28.85
2019-04-03T20:55:38.825Z,29.42
2019-04-03T20:57:55.377Z,28.68
2019-04-03T21:00:02.127Z,28.86
2019-04-03T21:02:07.998Z,29.35
2019-04-03T21:04:15.626Z,28.81
2019-04-03T21:06:24.062Z,29.06
2019-04-03T21:08:31.891Z,29.40
2019-04-03T21:10:39.873Z,29.23
2019-04-03T21:12:47.359Z,29.50
2019-04-03T21:15:07.374Z,29.59
2019-04-03T21:17:04.165Z,29.22
2019-04-03T21:19:11.675Z,29.37
2019-04-03T21:21:19.667Z,29.25
2019-04-03T21:23:27.259Z,29.35
2019-04-03T21:25:36.571Z,28.80
2019-04-03T21:27:44.297Z,29.70
2019-04-03T21:29:51.895Z,29.56
2019-04-03T21:31:59.558Z,29.56
2019-04-03T21:34:07.250Z,29.79
2019-04-03T21:36:14.812Z,30.08
2019-04-03T21:38:22.818Z,29.60
2019-04-03T21:40:31.072Z,29.58
2019-04-03T21:42:38.556Z,29.80
2019-04-03T21:44:46.318Z,29.90
2019-04-03T21:46:53.922Z,30.07
2019-04-03T21:49:01.754Z,29.67
2019-04-03T21:51:09.370Z,29.80
2019-04-03T21:53:16.859Z,29.96
2019-04-03T21:55:24.373Z,29.74
2019-04-03T21:57:31.988Z,30.17
2019-04-03T21:59:39.851Z,30.34
2019-04-03T22:01:49.011Z,29.89
2019-04-03T22:03:56.625Z,30.44
2019-04-03T22:06:04.077Z,29.84
2019-04-03T22:08:11.598Z,30.21
2019-04-03T22:10:19.202Z,30.74
2019-04-03T22:12:26.614Z,30.15
2019-04-03T22:14:34.053Z,30.44
2019-04-03T22:16:41.415Z,30.23
2019-04-03T22:18:48.940Z,30.05
2019-04-03T22:20:56.565Z,30.52
2019-04-03T22:23:04.877Z,30.85
2019-04-03T22:25:13.161Z,30.47
2019-04-03T22:27:20.584Z,30.55
2019-04-03T22:29:28.167Z,30.35
2019-04-03T22:31:35.623Z,30.97
2019-04-03T22:33:43.036Z,30.73
2019-04-03T22:35:50.550Z,30.92
2019-04-03T22:37:57.992Z,30.80
2019-04-03T22:40:06.068Z,30.53
2019-04-03T22:42:15.045Z,31.00
2019-04-03T22:44:22.542Z,30.90
2019-04-03T22:46:29.987Z,31.02
2019-04-03T22:48:37.437Z,31.61
2019-04-03T22:50:44.864Z,31.23
2019-04-03T22:52:52.271Z,31.39
2019-04-03T22:54:59.659Z,31.40
2019-04-03T22:57:07.084Z,31.65
2019-04-03T22:59:14.481Z,31.50
2019-04-03T23:01:24.754Z,31.96
2019-04-03T23:03:33.888Z,31.93
2019-04-03T23:05:41.419Z,31.38
2019-04-03T23:07:51.674Z,31.72
2019-04-03T23:09:58.875Z,31.98
2019-04-03T23:12:06.372Z,32.78
2019-04-03T23:14:13.847Z,32.48
2019-04-03T23:16:21.257Z,32.14
2019-04-03T23:18:28.686Z,31.59
2019-04-03T23:20:36.056Z,32.04
2019-04-03T23:22:43.503Z,32.53
2019-04-03T23:24:50.925Z,32.43
2019-04-03T23:26:58.377Z,32.40
2019-04-03T23:29:05.909Z,32.46
2019-04-03T23:31:13.617Z,32.35
2019-04-03T23:33:21.203Z,32.83
2019-04-03T23:35:28.601Z,32.53
2019-04-03T23:37:35.941Z,32.65
2019-04-03T23:39:43.305Z,33.01
2019-04-03T23:41:50.698Z,32.95
2019-04-03T23:43:58.121Z,33.09
2019-04-03T23:46:05.599Z,33.02
2019-04-03T23:48:12.997Z,33.39
2019-04-03T23:50:22.017Z,33.56
2019-04-03T23:52:29.969Z,33.80
2019-04-03T23:54:38.066Z,33.85
2019-04-03T23:56:45.443Z,33.14
2019-04-03T23:58:52.795Z,33.60
